Time;durP1;ratioP1;P1;durP2;ratioP2;P2;SDS_P1;SDS_P2;PMS_P1;PMS_P2;Temp;Humidity;BMP_temperature;BMP_pressure;BME280_temperature;BME280_humidity;BME280_pressure;Samples;Min_cycle;Max_cycle;Signal;HPM_P1;HPM_P2
2021/11/17 02:27:52;;;;;;;7.10;4.70;;;;;;;-140.79;100.00;63287.88;5009628;28;20558;-69
2021/11/17 02:30:32;;;;;;;5.72;4.18;;;;;;;-140.79;100.00;63287.88;5024964;28;20029;-69
2021/11/17 02:33:16;;;;;;;6.10;4.30;;;;;;;-140.79;100.00;63287.88;5027776;28;20025;-68
2021/11/17 02:35:47;;;;;;;7.03;4.20;;;;;;;-140.79;100.00;63287.88;5028706;28;20040;-69
2021/11/17 02:38:15;;;;;;;6.03;3.75;;;;;;;-140.79;100.00;63287.88;5028508;28;20033;-69
2021/11/17 02:40:50;;;;;;;5.47;4.13;;;;;;;-140.79;100.00;63287.88;5028340;28;20529;-68
2021/11/17 02:43:41;;;;;;;5.97;4.22;;;;;;;-140.79;100.00;63287.88;5028482;28;20104;-69
2021/11/17 02:46:29;;;;;;;6.90;4.32;;;;;;;-140.79;100.00;63287.88;5028731;28;20029;-69
2021/11/17 02:49:20;;;;;;;6.25;3.75;;;;;;;-140.79;100.00;63287.88;5028289;28;20052;-69
2021/11/17 02:52:04;;;;;;;5.20;3.63;;;;;;;-140.79;100.00;63287.88;5019840;28;20036;-69
2021/11/17 02:54:59;;;;;;;5.68;4.10;;;;;;;-140.79;100.00;63287.88;5028168;28;20037;-69
2021/11/17 02:57:40;;;;;;;5.45;3.80;;;;;;;-140.79;100.00;63287.88;5027618;28;20029;-69
2021/11/17 03:00:27;;;;;;;5.97;4.28;;;;;;;-140.79;100.00;63287.88;5028235;28;20057;-69
2021/11/17 03:03:28;;;;;;;5.95;4.07;;;;;;;-140.79;100.00;63287.88;5027726;28;20605;-68
2021/11/17 03:06:12;;;;;;;5.55;3.97;;;;;;;-140.79;100.00;63287.88;5026180;28;20041;-69
2021/11/17 03:08:46;;;;;;;6.05;3.95;;;;;;;-140.79;100.00;63287.88;5028030;28;20024;-68
2021/11/17 03:11:27;;;;;;;5.60;3.80;;;;;;;-140.79;100.00;63287.88;5028153;28;20033;-68
2021/11/17 03:14:20;;;;;;;5.45;3.65;;;;;;;-140.79;100.00;63287.88;5027903;28;20120;-69
2021/11/17 03:16:45;;;;;;;5.60;4.07;;;;;;;-140.79;100.00;63287.88;5026933;28;20095;-69
2021/11/17 03:19:20;;;;;;;5.47;3.90;;;;;;;-140.79;100.00;63287.88;5027421;28;20030;-69
2021/11/17 03:22:02;;;;;;;5.22;3.70;;;;;;;-140.79;100.00;63287.88;5027952;28;20062;-69
2021/11/17 03:24:52;;;;;;;6.10;3.95;;;;;;;-140.79;100.00;63287.88;5027840;28;20025;-69
2021/11/17 03:27:36;;;;;;;5.35;3.85;;;;;;;-140.79;100.00;63287.88;5026496;28;20037;-68
2021/11/17 03:30:36;;;;;;;5.68;3.50;;;;;;;-140.79;100.00;63287.88;5028545;28;20068;-68
2021/11/17 03:33:24;;;;;;;6.68;4.28;;;;;;;-140.79;100.00;63287.88;5028024;28;20021;-69
2021/11/17 03:35:59;;;;;;;4.78;3.70;;;;;;;-140.79;100.00;63287.88;5033991;28;20511;-69
2021/11/17 03:38:46;;;;;;;5.53;3.47;;;;;;;-140.79;100.00;63287.88;5028172;28;20044;-68
2021/11/17 03:41:14;;;;;;;4.82;3.72;;;;;;;-140.79;100.00;63287.88;5027097;28;20025;-69
2021/11/17 03:44:07;;;;;;;5.32;3.78;;;;;;;-140.79;100.00;63287.88;5025813;28;20037;-69
2021/11/17 03:46:33;;;;;;;5.35;3.70;;;;;;;-140.79;100.00;63287.88;5027063;28;20029;-69
2021/11/17 03:49:26;;;;;;;5.63;3.78;;;;;;;-140.79;100.00;63287.88;5026886;28;20640;-69
2021/11/17 03:52:22;;;;;;;5.78;3.90;;;;;;;-140.79;100.00;63287.88;5027035;28;20038;-69
2021/11/17 03:54:53;;;;;;;5.00;3.83;;;;;;;-140.79;100.00;63287.88;5027057;28;20404;-69
2021/11/17 03:57:45;;;;;;;4.97;3.80;;;;;;;-140.79;100.00;63287.88;5027105;28;20556;-69
2021/11/17 04:00:27;;;;;;;5.78;3.92;;;;;;;-140.79;100.00;63287.88;5027053;28;20542;-69
2021/11/17 04:03:08;;;;;;;5.97;3.53;;;;;;;-140.79;100.00;63287.88;5026801;28;20163;-69
2021/11/17 04:05:33;;;;;;;5.88;3.50;;;;;;;-140.79;100.00;63287.88;5026728;28;20029;-69
2021/11/17 04:08:17;;;;;;;5.28;3.60;;;;;;;-140.79;100.00;63287.88;5026736;28;20071;-69
2021/11/17 04:10:45;;;;;;;5.53;3.67;;;;;;;-140.79;100.00;63287.88;5026726;28;20021;-68
2021/11/17 04:13:31;;;;;;;5.38;3.65;;;;;;;-140.79;100.00;63287.88;5026662;28;20064;-69
2021/11/17 04:16:26;;;;;;;4.75;3.58;;;;;;;-140.79;100.00;63287.88;5024870;28;20030;-69
2021/11/17 04:19:19;;;;;;;5.50;3.80;;;;;;;-140.79;100.00;63287.88;5026429;28;20091;-69
2021/11/17 04:22:22;;;;;;;5.47;3.30;;;;;;;-140.79;100.00;63287.88;5026548;28;20034;-69
2021/11/17 04:25:08;;;;;;;4.90;3.03;;;;;;;-140.79;100.00;63287.88;5026464;28;20052;-69
2021/11/17 04:28:07;;;;;;;5.20;3.78;;;;;;;-140.79;100.00;63287.88;5024579;28;20072;-69
2021/11/17 04:30:59;;;;;;;4.65;3.70;;;;;;;-140.79;100.00;63287.88;5026049;28;20021;-69
2021/11/17 04:33:24;;;;;;;5.70;3.63;;;;;;;-140.79;100.00;63287.88;5026166;28;20517;-69
2021/11/17 04:36:25;;;;;;;4.78;3.92;;;;;;;-140.79;100.00;63287.88;5026284;28;20179;-69
2021/11/17 04:39:12;;;;;;;5.30;3.72;;;;;;;-140.79;100.00;63287.88;4983885;28;20034;-69
2021/11/17 04:41:53;;;;;;;5.47;3.72;;;;;;;-140.79;100.00;63287.88;5023344;28;20053;-69
2021/11/17 04:44:19;;;;;;;5.07;3.67;;;;;;;-140.79;100.00;63287.88;5026069;28;20025;-69
2021/11/17 04:46:59;;;;;;;4.57;3.47;;;;;;;-140.79;100.00;63287.88;5025561;28;20045;-69
2021/11/17 04:49:50;;;;;;;4.80;3.40;;;;;;;-140.79;100.00;63287.88;5026088;28;20064;-69
2021/11/17 04:52:40;;;;;;;4.97;3.78;;;;;;;-140.79;100.00;63287.88;5033256;28;20029;-69
2021/11/17 04:55:30;;;;;;;5.47;3.17;;;;;;;-140.79;100.00;63287.88;5045410;28;20186;-68
2021/11/17 04:58:11;;;;;;;4.60;3.47;;;;;;;-140.79;100.00;63287.88;5045482;28;20036;-69
2021/11/17 05:00:42;;;;;;;5.57;3.60;;;;;;;-140.79;100.00;63287.88;5045142;28;20502;-67
2021/11/17 05:03:33;;;;;;;4.88;3.30;;;;;;;-140.79;100.00;63287.88;5045493;28;20387;-67
2021/11/17 05:06:10;;;;;;;5.47;2.78;;;;;;;-140.79;100.00;63287.88;5045252;28;20051;-71
2021/11/17 05:09:17;;;;;;;6.38;3.55;;;;;;;-140.79;100.00;63287.88;5045357;28;20035;-71
2021/11/17 05:12:04;;;;;;;4.97;3.30;;;;;;;-140.79;100.00;63287.88;5019975;28;20080;-70
2021/11/17 05:14:36;;;;;;;4.45;3.30;;;;;;;-140.79;100.00;63287.88;5021011;28;20123;-69
2021/11/17 05:17:13;;;;;;;4.10;3.17;;;;;;;-140.79;100.00;63287.88;5034356;28;20029;-69
2021/11/17 05:19:44;;;;;;;4.05;2.85;;;;;;;-140.79;100.00;63287.88;5045010;28;20495;-70
2021/11/17 05:22:37;;;;;;;4.78;3.35;;;;;;;-140.79;100.00;63287.88;5044982;28;20039;-69
2021/11/17 05:25:16;;;;;;;4.25;3.03;;;;;;;-140.79;100.00;63287.88;5041421;28;20025;-71
2021/11/17 05:27:44;;;;;;;4.18;2.92;;;;;;;-140.79;100.00;63287.88;5045293;28;20086;-72
2021/11/17 05:30:15;;;;;;;4.45;2.80;;;;;;;-140.79;100.00;63287.88;5045441;28;20703;-70
2021/11/17 05:33:18;;;;;;;4.18;3.10;;;;;;;-140.79;100.00;63287.88;5045049;28;20411;-71
2021/11/17 05:35:55;;;;;;;4.95;3.15;;;;;;;-140.79;100.00;63287.88;5044502;28;20052;-71
2021/11/17 05:38:47;;;;;;;4.72;3.30;;;;;;;-140.79;100.00;63287.88;5044883;28;20094;-71
2021/11/17 05:41:34;;;;;;;4.22;3.15;;;;;;;-140.79;100.00;63287.88;5044291;28;20374;-71
2021/11/17 05:44:32;;;;;;;4.45;3.00;;;;;;;-140.79;100.00;63287.88;5044968;28;20025;-71
2021/11/17 05:47:12;;;;;;;4.20;2.90;;;;;;;-140.79;100.00;63287.88;5039037;28;20033;-71
2021/11/17 05:49:55;;;;;;;;;;;;;;;-140.79;100.00;63287.88;5047351;28;20071;-71
2021/11/17 05:52:36;;;;;;;5.15;3.08;;;;;;;-140.79;100.00;63287.88;5048383;28;19919;-70
2021/11/17 05:55:25;;;;;;;4.93;3.60;;;;;;;-140.79;100.00;63287.88;5045117;28;20740;-69
2021/11/17 05:58:06;;;;;;;3.78;2.90;;;;;;;-140.79;100.00;63287.88;5036315;28;20040;-69
2021/11/17 06:00:53;;;;;;;3.97;2.97;;;;;;;-140.79;100.00;63287.88;5044854;28;20037;-70
2021/11/17 06:03:21;;;;;;;4.00;2.85;;;;;;;-140.79;100.00;63287.88;5044770;28;20045;-73
2021/11/17 06:05:46;;;;;;;4.38;3.15;;;;;;;-140.79;100.00;63287.88;5044017;28;20032;-73
2021/11/17 06:08:11;;;;;;;4.50;3.17;;;;;;;-140.79;100.00;63287.88;5043409;28;20021;-73
2021/11/17 06:10:39;;;;;;;3.93;2.90;;;;;;;-140.79;100.00;63287.88;5044536;28;20271;-69
2021/11/17 06:13:05;;;;;;;5.53;3.08;;;;;;;-140.79;100.00;63287.88;5045543;28;20283;-74
2021/11/17 06:15:31;;;;;;;4.43;2.70;;;;;;;-140.79;100.00;63287.88;5045237;28;20086;-71
2021/11/17 06:17:56;;;;;;;3.85;2.83;;;;;;;-140.79;100.00;63287.88;5043687;28;20756;-74
2021/11/17 06:20:23;;;;;;;4.22;3.05;;;;;;;-140.79;100.00;63287.88;5044392;28;20561;-74
2021/11/17 06:22:51;;;;;;;5.20;3.15;;;;;;;-140.79;100.00;63287.88;5045606;28;20029;-67
2021/11/17 06:25:16;;;;;;;6.30;2.72;;;;;;;-140.79;100.00;63287.88;5045450;28;20538;-69
2021/11/17 06:27:44;;;;;;;4.00;2.80;;;;;;;-140.79;100.00;63287.88;5042759;28;20106;-72
2021/11/17 06:30:10;;;;;;;4.47;2.83;;;;;;;-140.79;100.00;63287.88;5040592;28;20017;-71
2021/11/17 06:32:36;;;;;;;4.15;2.80;;;;;;;-140.79;100.00;63287.88;5040375;28;20016;-72
2021/11/17 06:35:02;;;;;;;3.97;2.95;;;;;;;-140.79;100.00;63287.88;5042918;28;20414;-73
2021/11/17 06:37:28;;;;;;;4.20;2.90;;;;;;;-140.79;100.00;63287.88;5044004;28;20057;-73
2021/11/17 06:39:55;;;;;;;5.93;3.33;;;;;;;-140.79;100.00;63287.88;5043065;28;20089;-72
2021/11/17 06:42:25;;;;;;;4.53;2.90;;;;;;;-140.79;100.00;63287.88;5042991;28;20021;-72
2021/11/17 06:44:50;;;;;;;4.40;3.10;;;;;;;-140.79;100.00;63287.88;5043493;28;20017;-72
2021/11/17 06:47:16;;;;;;;4.20;2.90;;;;;;;-140.79;100.00;63287.88;5042033;28;20087;-73
2021/11/17 06:49:41;;;;;;;4.13;3.13;;;;;;;-140.79;100.00;63287.88;5043470;28;20025;-74
2021/11/17 06:52:07;;;;;;;5.00;3.05;;;;;;;-140.79;100.00;63287.88;5040073;28;20021;-71
2021/11/17 06:54:33;;;;;;;4.00;2.92;;;;;;;-140.79;100.00;63287.88;5043733;28;20027;-73
2021/11/17 06:56:58;;;;;;;4.57;3.08;;;;;;;-140.79;100.00;63287.88;5043169;28;20036;-70
2021/11/17 06:59:24;;;;;;;4.07;2.95;;;;;;;-140.79;100.00;63287.88;5043964;28;20510;-74
2021/11/17 07:01:49;;;;;;;5.03;2.63;;;;;;;-140.79;100.00;63287.88;5044526;28;20017;-74
2021/11/17 07:04:15;;;;;;;4.20;2.92;;;;;;;-140.79;100.00;63287.88;5036965;28;20053;-75
2021/11/17 07:06:40;;;;;;;4.45;2.90;;;;;;;-140.79;100.00;63287.88;5024234;28;20032;-70
2021/11/17 07:09:08;;;;;;;4.28;3.17;;;;;;;-140.79;100.00;63287.88;5023611;28;20049;-72
2021/11/17 07:11:37;;;;;;;5.03;2.90;;;;;;;-140.79;100.00;63287.88;5038562;28;20018;-70
2021/11/17 07:14:07;;;;;;;4.25;2.75;;;;;;;-140.79;100.00;63287.88;5039295;28;20021;-76
2021/11/17 07:16:33;;;;;;;4.88;3.00;;;;;;;-140.79;100.00;63287.88;5038822;28;20049;-71
2021/11/17 07:18:59;;;;;;;4.18;2.95;;;;;;;-140.79;100.00;63287.88;5026814;28;20036;-72
2021/11/17 07:21:24;;;;;;;4.15;3.28;;;;;;;-140.79;100.00;63287.88;5028444;28;20036;-70
2021/11/17 07:23:51;;;;;;;4.80;3.22;;;;;;;-140.79;100.00;63287.88;5042139;28;20047;-71
2021/11/17 07:26:16;;;;;;;4.05;2.90;;;;;;;-140.79;100.00;63287.88;4992240;28;20120;-69
2021/11/17 07:28:42;;;;;;;4.40;2.95;;;;;;;-140.79;100.00;63287.88;5044530;28;20033;-70
2021/11/17 07:31:07;;;;;;;3.83;2.85;;;;;;;-140.79;100.00;63287.88;5033398;28;20178;-69
2021/11/17 07:33:32;;;;;;;5.03;3.08;;;;;;;-140.79;100.00;63287.88;5026926;28;20783;-69
2021/11/17 07:35:58;;;;;;;4.72;3.28;;;;;;;-140.79;100.00;63287.88;5042787;28;20638;-69
2021/11/17 07:38:24;;;;;;;5.13;2.95;;;;;;;-140.79;100.00;63287.88;5040549;28;20037;-69
2021/11/17 07:40:49;;;;;;;5.07;3.38;;;;;;;-140.79;100.00;63287.88;5042472;28;20048;-69
2021/11/17 07:43:16;;;;;;;4.72;2.83;;;;;;;-140.79;100.00;63287.88;5025381;28;20021;-69
2021/11/17 07:45:42;;;;;;;5.28;3.10;;;;;;;-140.79;100.00;63287.88;5027120;28;20029;-69
2021/11/17 07:48:08;;;;;;;4.50;3.28;;;;;;;-140.79;100.00;63287.88;5031975;28;20730;-70
2021/11/17 07:50:36;;;;;;;4.53;3.13;;;;;;;-140.79;100.00;63287.88;5039728;28;20106;-70
2021/11/17 07:53:02;;;;;;;4.32;3.22;;;;;;;-140.79;100.00;63287.88;5030666;28;20100;-70
2021/11/17 07:55:27;;;;;;;5.45;3.30;;;;;;;-140.79;100.00;63287.88;5030914;28;20053;-70
2021/11/17 07:57:53;;;;;;;5.30;3.20;;;;;;;-140.79;100.00;63287.88;5041277;28;20554;-70
2021/11/17 08:00:26;;;;;;;4.82;3.33;;;;;;;-140.79;100.00;63287.88;5043149;28;20049;-69
2021/11/17 08:02:52;;;;;;;6.00;3.53;;;;;;;-140.79;100.00;63287.88;5042318;28;20116;-70
2021/11/17 08:05:19;;;;;;;6.70;3.28;;;;;;;-140.79;100.00;63287.88;5065970;28;20025;-69
2021/11/17 08:07:44;;;;;;;6.07;3.15;;;;;;;-140.79;100.00;63287.88;5046688;28;20123;-70
2021/11/17 08:10:24;;;;;;;5.45;3.83;;;;;;;-140.79;100.00;63287.88;5043078;28;20531;-69
2021/11/17 08:12:49;;;;;;;4.63;3.17;;;;;;;-140.79;100.00;63287.88;5042724;28;20086;-69
2021/11/17 08:15:15;;;;;;;5.07;3.50;;;;;;;-140.79;100.00;63287.88;5058952;28;20037;-70
2021/11/17 08:17:41;;;;;;;6.63;3.75;;;;;;;-140.79;100.00;63287.88;5026285;28;20508;-68
2021/11/17 08:20:11;;;;;;;5.90;3.90;;;;;;;-140.79;100.00;63287.88;5041523;28;20504;-69
2021/11/17 08:22:37;;;;;;;5.80;3.67;;;;;;;-140.79;100.00;63287.88;5025877;28;20091;-68
2021/11/17 08:25:03;;;;;;;5.00;3.47;;;;;;;-140.79;100.00;63287.88;5026510;28;20025;-68
2021/11/17 08:27:28;;;;;;;6.72;3.83;;;;;;;-140.79;100.00;63287.88;5026307;28;20095;-69
2021/11/17 08:29:56;;;;;;;6.32;3.42;;;;;;;-140.79;100.00;63287.88;5057592;28;20033;-69
2021/11/17 08:32:21;;;;;;;6.15;3.90;;;;;;;-140.79;100.00;63287.88;5025310;28;20026;-68
2021/11/17 08:34:47;;;;;;;6.05;3.88;;;;;;;-140.79;100.00;63287.88;5058437;28;20022;-69
2021/11/17 08:37:13;;;;;;;7.18;4.38;;;;;;;-140.79;100.00;63287.88;5024522;28;20025;-66
2021/11/17 08:39:41;;;;;;;6.72;3.90;;;;;;;-140.79;100.00;63287.88;5025655;28;20434;-68
2021/11/17 08:42:10;;;;;;;6.03;3.80;;;;;;;-140.79;100.00;63287.88;5025822;28;20086;-68
2021/11/17 08:44:36;;;;;;;5.45;3.78;;;;;;;-140.79;100.00;63287.88;5026049;28;20025;-66
2021/11/17 08:47:04;;;;;;;5.70;3.72;;;;;;;-140.79;100.00;63287.88;5024293;28;20734;-69
2021/11/17 08:49:29;;;;;;;6.18;3.75;;;;;;;-140.79;100.00;63287.88;5025241;28;20036;-69
2021/11/17 08:51:56;;;;;;;7.55;4.50;;;;;;;-140.79;100.00;63287.88;5025691;28;20021;-69
2021/11/17 08:54:22;;;;;;;5.90;3.78;;;;;;;-140.79;100.00;63287.88;5025923;28;20029;-68
2021/11/17 08:56:47;;;;;;;6.35;4.50;;;;;;;-140.79;100.00;63287.88;5041027;28;20028;-68
2021/11/17 08:59:13;;;;;;;5.47;3.97;;;;;;;-140.79;100.00;63287.88;5040687;28;20032;-68
2021/11/17 09:01:38;;;;;;;6.30;3.80;;;;;;;-140.79;100.00;63287.88;5024124;28;20037;-68
2021/11/17 09:04:07;;;;;;;6.50;3.95;;;;;;;-140.79;100.00;63287.88;5024307;28;20053;-68
2021/11/17 09:06:34;;;;;;;5.88;4.15;;;;;;;-140.79;100.00;63287.88;5025575;28;20101;-68
2021/11/17 09:09:04;;;;;;;5.65;3.92;;;;;;;-140.79;100.00;63287.88;5040210;28;20021;-68
2021/11/17 09:11:30;;;;;;;5.57;3.92;;;;;;;-140.79;100.00;63287.88;5025280;28;20715;-68
2021/11/17 09:13:56;;;;;;;5.57;3.90;;;;;;;-140.79;100.00;63287.88;5024294;28;20029;-68
2021/11/17 09:16:21;;;;;;;6.20;4.22;;;;;;;-140.79;100.00;63287.88;5023808;28;20602;-69
2021/11/17 09:18:50;;;;;;;6.88;4.38;;;;;;;-140.79;100.00;63287.88;5023967;28;20041;-67
2021/11/17 09:21:16;;;;;;;6.20;3.88;;;;;;;-140.79;100.00;63287.88;5024064;28;20145;-68
2021/11/17 09:23:42;;;;;;;6.32;4.00;;;;;;;-140.79;100.00;63287.88;5025062;28;20033;-67
2021/11/17 09:26:08;;;;;;;5.35;3.75;;;;;;;-140.79;100.00;63287.88;5025187;28;20029;-68
2021/11/17 09:28:34;;;;;;;7.07;3.90;;;;;;;-140.79;100.00;63287.88;5024582;28;20033;-68
2021/11/17 09:30:59;;;;;;;6.35;4.13;;;;;;;-140.79;100.00;63287.88;5038889;28;20579;-68
2021/11/17 09:33:25;;;;;;;5.88;3.95;;;;;;;-140.79;100.00;63287.88;5024914;28;20124;-68
2021/11/17 09:35:50;;;;;;;7.60;4.57;;;;;;;-140.79;100.00;63287.88;5040459;28;20029;-68
2021/11/17 09:38:16;;;;;;;6.25;4.13;;;;;;;-140.79;100.00;63287.88;5023516;28;20029;-69
2021/11/17 09:40:51;;;;;;;6.63;4.22;;;;;;;-140.79;100.00;63287.88;5039742;28;20080;-69
2021/11/17 09:43:20;;;;;;;6.50;4.32;;;;;;;-140.79;100.00;63287.88;5040181;28;20029;-69
2021/11/17 09:45:46;;;;;;;6.47;4.00;;;;;;;-140.79;100.00;63287.88;5040093;28;20029;-69
2021/11/17 09:48:17;;;;;;;6.45;4.55;;;;;;;-140.79;100.00;63287.88;5022726;28;20545;-69
2021/11/17 09:50:46;;;;;;;7.53;4.50;;;;;;;-140.79;100.00;63287.88;5023353;28;20017;-69
2021/11/17 09:53:44;;;;;;;6.32;4.55;;;;;;;-140.79;100.00;63287.88;5039839;28;20025;-69
2021/11/17 09:56:20;;;;;;;5.97;3.65;;;;;;;-140.79;100.00;63287.88;5022047;28;20132;-69
2021/11/17 09:58:52;;;;;;;7.32;4.10;;;;;;;-140.79;100.00;63287.88;5023386;28;20035;-67
2021/11/17 10:01:25;;;;;;;5.18;3.80;;;;;;;-140.79;100.00;63287.88;5022143;28;20086;-69
2021/11/17 10:03:55;;;;;;;7.03;4.30;;;;;;;-140.79;100.00;63287.88;5040303;28;20041;-67
2021/11/17 10:12:16;;;;;;;7.47;4.30;;;;;;;-140.79;100.00;63287.88;5049196;28;20031;-68
2021/11/17 10:15:09;;;;;;;9.48;4.78;;;;;;;-140.79;100.00;63287.88;5050277;28;20036;-71
2021/11/17 10:17:53;;;;;;;8.68;4.43;;;;;;;-140.79;100.00;63287.88;5029737;28;20037;-67
2021/11/17 10:20:31;;;;;;;7.45;4.28;;;;;;;-140.79;100.00;63287.88;5044816;28;20037;-69
2021/11/17 10:23:05;;;;;;;7.55;4.60;;;;;;;-140.79;100.00;63287.88;5045829;28;20513;-68
2021/11/17 10:25:54;;;;;;;6.78;4.57;;;;;;;-140.79;100.00;63287.88;5045206;28;20029;-69
2021/11/17 10:28:32;;;;;;;7.45;3.97;;;;;;;-140.79;100.00;63287.88;5045122;28;20033;-69
2021/11/17 10:31:04;;;;;;;8.20;4.50;;;;;;;-140.79;100.00;63287.88;5042372;28;20128;-69
2021/11/17 10:33:57;;;;;;;7.38;4.22;;;;;;;-140.79;100.00;63287.88;5044061;28;20025;-69
2021/11/17 10:36:40;;;;;;;8.52;5.03;;;;;;;-140.79;100.00;63287.88;5044525;28;20036;-69
2021/11/17 10:39:29;;;;;;;6.88;4.53;;;;;;;-140.79;100.00;63287.88;5044466;28;20028;-69
2021/11/17 10:42:07;;;;;;;6.00;3.90;;;;;;;-140.79;100.00;63287.88;5044224;28;20027;-69
2021/11/17 10:45:00;;;;;;;6.32;4.50;;;;;;;-140.79;100.00;63287.88;5044583;28;20487;-69
2021/11/17 10:47:28;;;;;;;7.20;4.05;;;;;;;-140.79;100.00;63287.88;5043859;28;20025;-69
2021/11/17 10:50:06;;;;;;;6.93;4.13;;;;;;;-140.79;100.00;63287.88;5044616;28;20067;-69
2021/11/17 10:52:33;;;;;;;9.63;4.80;;;;;;;-140.79;100.00;63287.88;5044992;28;20213;-69
2021/11/17 10:55:01;;;;;;;10.63;4.70;;;;;;;-140.79;100.00;63287.88;5046963;28;20025;-70
2021/11/17 10:57:32;;;;;;;9.25;4.45;;;;;;;-140.79;100.00;63287.88;5030313;28;20028;-68
2021/11/17 10:59:58;;;;;;;7.70;4.50;;;;;;;-140.79;100.00;63287.88;5048318;28;20032;-70
2021/11/17 11:02:25;;;;;;;9.60;4.85;;;;;;;-140.79;100.00;63287.88;5051676;28;20093;-70
2021/11/17 11:04:53;;;;;;;10.45;4.65;;;;;;;-140.79;100.00;63287.88;5014267;28;20111;-69
2021/11/17 11:07:20;;;;;;;8.45;4.43;;;;;;;-140.79;100.00;63287.88;5014035;28;20033;-69
2021/11/17 11:09:54;;;;;;;9.10;4.68;;;;;;;-140.79;100.00;63287.88;5030466;28;20029;-69
2021/11/17 11:12:19;;;;;;;8.10;4.60;;;;;;;-140.79;100.00;63287.88;5028916;28;20024;-73
2021/11/17 11:15:05;;;;;;;9.15;4.75;;;;;;;-140.79;100.00;63287.88;5068529;28;20035;-74
2021/11/17 11:17:39;;;;;;;8.27;4.53;;;;;;;-140.79;100.00;63287.88;5051054;28;20032;-73
2021/11/17 11:20:17;;;;;;;7.20;4.45;;;;;;;-140.79;100.00;63287.88;5062308;28;20063;-71
2021/11/17 11:23:05;;;;;;;10.63;4.40;;;;;;;-140.79;100.00;63287.88;5067010;28;20558;-71
2021/11/17 11:25:57;;;;;;;7.53;4.20;;;;;;;-140.79;100.00;63287.88;5047880;28;20051;-71
2021/11/17 11:28:25;;;;;;;7.05;4.28;;;;;;;-140.79;100.00;63287.88;5052607;28;20507;-73
2021/11/17 11:31:12;;;;;;;11.50;4.43;;;;;;;-140.79;100.00;63287.88;5066675;28;20024;-70
2021/11/17 11:33:48;;;;;;;8.10;4.47;;;;;;;-140.79;100.00;63287.88;5067017;28;20040;-70
2021/11/17 11:36:13;;;;;;;7.00;4.25;;;;;;;-140.79;100.00;63287.88;5067653;28;20051;-70
2021/11/17 11:38:59;;;;;;;10.05;4.90;;;;;;;-140.79;100.00;63287.88;5066019;28;20037;-72
2021/11/17 11:41:37;;;;;;;7.28;4.45;;;;;;;-140.79;100.00;63287.88;5058534;28;20121;-73
2021/11/17 11:44:19;;;;;;;7.90;4.03;;;;;;;-140.79;100.00;63287.88;5067843;28;20108;-72
2021/11/17 11:47:08;;;;;;;7.53;4.50;;;;;;;-140.79;100.00;63287.88;5068057;28;20043;-72
2021/11/17 11:49:44;;;;;;;7.63;4.60;;;;;;;-140.79;100.00;63287.88;5054233;28;20048;-74
2021/11/17 11:52:09;;;;;;;7.13;4.20;;;;;;;-140.79;100.00;63287.88;5052132;28;20115;-76
2021/11/17 11:54:58;;;;;;;7.00;4.40;;;;;;;-140.79;100.00;63287.88;5069060;28;20166;-74
2021/11/17 11:57:51;;;;;;;7.45;4.03;;;;;;;-140.79;100.00;63287.88;5063386;28;20056;-73
2021/11/17 12:00:30;;;;;;;7.97;4.57;;;;;;;-140.79;100.00;63287.88;5068264;28;20051;-70
2021/11/17 12:03:15;;;;;;;6.90;4.20;;;;;;;-140.79;100.00;63287.88;5066642;28;20628;-65
2021/11/17 12:05:45;;;;;;;8.20;4.35;;;;;;;-140.79;100.00;63287.88;5065665;28;20044;-69
2021/11/17 12:08:29;;;;;;;;;;;;;;;-140.79;100.00;63287.88;5047613;28;20032;-70
2021/11/17 12:11:08;;;;;;;6.78;4.10;;;;;;;-140.79;100.00;63287.88;5062675;28;20394;-70
2021/11/17 12:13:40;;;;;;;;;;;;;;;-140.79;100.00;63287.88;5063905;28;20516;-69
2021/11/17 12:16:23;;;;;;;5.95;3.90;;;;;;;-140.79;100.00;63287.88;5068610;28;19916;-71
2021/11/17 12:18:50;;;;;;;6.82;4.07;;;;;;;-140.79;100.00;63287.88;5067976;28;20123;-70
2021/11/17 12:21:18;;;;;;;9.18;4.05;;;;;;;-140.79;100.00;63287.88;5049702;28;20026;-69
2021/11/17 12:23:44;;;;;;;5.55;4.20;;;;;;;-140.79;100.00;63287.88;5068197;28;20123;-70
2021/11/17 12:26:17;;;;;;;7.20;4.43;;;;;;;-140.79;100.00;63287.88;5049998;28;20119;-67
2021/11/17 12:29:03;;;;;;;7.25;4.57;;;;;;;-140.79;100.00;63287.88;5068218;28;20033;-70
2021/11/17 12:31:55;;;;;;;6.10;3.95;;;;;;;-140.79;100.00;63287.88;5019718;28;20517;-70
2021/11/17 12:34:49;;;;;;;6.63;4.65;;;;;;;-140.79;100.00;63287.88;5067238;28;20059;-69
2021/11/17 12:37:28;;;;;;;6.68;4.20;;;;;;;-140.79;100.00;63287.88;5065214;28;20029;-70
2021/11/17 12:40:14;;;;;;;6.70;4.57;;;;;;;-140.79;100.00;63287.88;5032254;28;20585;-71
2021/11/17 12:42:51;;;;;;;9.10;4.63;;;;;;;-140.79;100.00;63287.88;5062480;28;20024;-70
2021/11/17 12:45:27;;;;;;;6.43;4.68;;;;;;;-140.79;100.00;63287.88;5048861;28;20108;-70
2021/11/17 12:47:58;;;;;;;7.47;4.93;;;;;;;-140.79;100.00;63287.88;5049412;28;20017;-70
2021/11/17 12:50:30;;;;;;;6.25;4.63;;;;;;;-140.79;100.00;63287.88;5047871;28;20268;-69
2021/11/17 12:53:03;;;;;;;7.45;4.50;;;;;;;-140.79;100.00;63287.88;5062122;28;20044;-68
2021/11/17 12:55:46;;;;;;;6.72;4.78;;;;;;;-140.79;100.00;63287.88;5067952;28;20419;-69
2021/11/17 12:58:34;;;;;;;7.78;5.05;;;;;;;-140.79;100.00;63287.88;5046318;28;20082;-71
2021/11/17 13:01:18;;;;;;;6.43;4.40;;;;;;;-140.79;100.00;63287.88;5033308;28;20024;-69
2021/11/17 13:03:49;;;;;;;6.03;4.53;;;;;;;-140.79;100.00;63287.88;5062297;28;20048;-70
2021/11/17 13:06:40;;;;;;;6.35;4.47;;;;;;;-140.79;100.00;63287.88;5047140;28;20032;-70
2021/11/17 13:09:21;;;;;;;5.53;4.22;;;;;;;-140.79;100.00;63287.88;5065022;28;20478;-71
2021/11/17 13:11:57;;;;;;;6.50;4.55;;;;;;;-140.79;100.00;63287.88;5064746;28;20026;-71
2021/11/17 13:14:27;;;;;;;7.10;4.68;;;;;;;-140.79;100.00;63287.88;5047549;28;20021;-71
2021/11/17 13:16:58;;;;;;;;;;;;;;;-140.79;100.00;63287.88;5047894;28;20422;-69
2021/11/17 13:19:32;;;;;;;6.57;4.47;;;;;;;-140.79;100.00;63287.88;5063910;28;20443;-72
2021/11/17 13:22:00;;;;;;;8.02;4.78;;;;;;;-140.79;100.00;63287.88;5065006;28;20567;-70
2021/11/17 13:24:39;;;;;;;7.22;4.80;;;;;;;-140.79;100.00;63287.88;5064892;28;20028;-70
2021/11/17 13:27:07;;;;;;;7.28;4.78;;;;;;;-140.79;100.00;63287.88;5064618;28;20457;-71
2021/11/17 13:30:10;;;;;;;6.60;4.78;;;;;;;-140.79;100.00;63287.88;5064104;28;20462;-70
2021/11/17 13:32:38;;;;;;;7.00;4.65;;;;;;;-140.79;100.00;63287.88;5065035;28;20143;-71
2021/11/17 13:35:25;;;;;;;7.63;4.93;;;;;;;-140.79;100.00;63287.88;5046478;28;20032;-71
2021/11/17 13:37:51;;;;;;;6.10;4.72;;;;;;;-140.79;100.00;63287.88;5064574;28;20024;-71
2021/11/17 13:40:24;;;;;;;6.88;4.75;;;;;;;-140.79;100.00;63287.88;5062639;28;20028;-70
2021/11/17 13:42:51;;;;;;;6.82;4.88;;;;;;;-140.79;100.00;63287.88;5047028;28;20052;-70
2021/11/17 13:45:21;;;;;;;6.68;4.82;;;;;;;-140.79;100.00;63287.88;5065237;28;20491;-71
2021/11/17 13:47:47;;;;;;;6.68;5.10;;;;;;;-140.79;100.00;63287.88;5047439;28;20411;-71
2021/11/17 13:50:13;;;;;;;6.82;5.40;;;;;;;-140.79;100.00;63287.88;5028082;28;20034;-71
2021/11/17 13:52:41;;;;;;;6.88;4.72;;;;;;;-140.79;100.00;63287.88;5063676;28;20036;-71
2021/11/17 13:55:09;;;;;;;8.90;5.60;;;;;;;-140.79;100.00;63287.88;5063728;28;20016;-71
2021/11/17 13:57:35;;;;;;;8.43;5.43;;;;;;;-140.79;100.00;63287.88;5060924;28;20032;-69
2021/11/17 14:00:02;;;;;;;7.07;5.38;;;;;;;-140.79;100.00;63287.88;5060023;28;20095;-70
2021/11/17 14:02:28;;;;;;;6.63;4.85;;;;;;;-140.79;100.00;63287.88;5057724;28;20032;-71
2021/11/17 14:04:53;;;;;;;7.95;5.40;;;;;;;-140.79;100.00;63287.88;5061192;28;20036;-71
2021/11/17 14:07:20;;;;;;;7.07;5.22;;;;;;;-140.79;100.00;63287.88;5061273;28;20028;-71
2021/11/17 14:09:46;;;;;;;6.72;5.50;;;;;;;-140.79;100.00;63287.88;5041705;28;20104;-71
2021/11/17 14:12:11;;;;;;;7.85;4.85;;;;;;;-140.79;100.00;63287.88;5057168;28;20725;-70
2021/11/17 14:14:37;;;;;;;6.43;5.13;;;;;;;-140.79;100.00;63287.88;5062002;28;20039;-71
2021/11/17 14:17:04;;;;;;;6.60;4.97;;;;;;;-140.79;100.00;63287.88;5046848;28;20032;-70